Weather History for KRPJ - April, 2013

Change the Weather History Date:

Friday, April 5, 2013

  Actual Average (KRFD) Record (KRFD)
Temperature  
Mean Temperature 41 °F 45 °F  
Max Temperature 52 °F 56 °F 82 °F (1988)
Min Temperature 30 °F 34 °F 15 °F (1995)
Degree Days  
Heating Degree Days 24 20  
Month to date heating degree days 103  
Since 1 July heating degree days 5967  
Cooling Degree Days 0 0  
Month to date cooling degree days 0  
Year to date cooling degree days 0  
Moisture  
Dew Point 26 °F    
Average Humidity 58    
Maximum Humidity 88    
Minimum Humidity 29    
Precipitation  
Precipitation 0.00 in 0.10 in 1.39 in (1964)
Month to date precipitation 0.52  
Year to date precipitation 5.62  
Snow  
Snow 0.00 in 0.00 in 6.30 in (1982)
Month to date snowfall 0.3  
Since 1 July snowfall 36.1  
Snow Depth -    
Sea Level Pressure  
Sea Level Pressure 30.14 in    
Wind  
Wind Speed 9 mph (ENE)    
Max Wind Speed 22 mph    
Max Gust Speed 28 mph    
Visibility 10 miles    
Events      
T = Trace of Precipitation, MM = Missing Value Source: NWS Daily Summary

Daily Weather History Graph

Daily Weather History Graph

Search for Another Location

Airport or City:

Trip Planner

Search our weather history database for the weather conditions in past years. The results will help you decide how hot, cold, wet, or windy it might be!

Date:

Astronomy

Apr. 05, 2013 Rise Set
Actual Time 6:31 AM CDT 7:26 PM CDT
Civil Twilight 6:03 AM CDT 7:54 PM CDT
Nautical Twilight 5:29 AM CDT 8:28 PM CDT
Astronomical Twilight 4:54 AM CDT 9:03 PM CDT
Moon 3:43 AM CDT (4/5) 2:46 PM CDT (4/5)
Length of Visible Light 13h 51m
Length of Day
12h 54m
Waning Crescent, 23% of the Moon is Illuminated
Apr 5
Waning Crescent
Apr 10
New
Apr 18
First Quarter
Apr 25
Full
May 2
Last Quarter

Hourly Weather History & Observations

Time (CDT) Temp. Windchill Dew Point Humidity Pressure Visibility Wind Dir Wind Speed Gust Speed Precip Events Conditions
12:15 AM 38.3 °F 32.5 °F 34.2 °F 85% 30.04 in 10.0 mi NNW 8.1 mph - N/A   Clear
12:35 AM 38.8 °F 33.8 °F 33.8 °F 82% 30.04 in 10.0 mi NNW 6.9 mph - N/A   Clear
12:55 AM 38.1 °F 32.9 °F 32.9 °F 81% 30.05 in 10.0 mi NNW 6.9 mph - N/A   Clear
1:15 AM 37.8 °F 32.5 °F 32.4 °F 81% 30.05 in 10.0 mi NNW 6.9 mph - N/A   Clear
1:35 AM 37.6 °F 31.0 °F 32.4 °F 81% 30.05 in 10.0 mi North 9.2 mph - N/A   Clear
1:55 AM 37.9 °F 30.9 °F 32.0 °F 79% 30.05 in 10.0 mi NNW 10.4 mph - N/A   Clear
2:15 AM 37.8 °F 31.3 °F 31.8 °F 79% 30.05 in 10.0 mi NNW 9.2 mph - N/A   Clear
2:35 AM 37.4 °F 30.3 °F 31.3 °F 79% 30.05 in 10.0 mi North 10.4 mph - N/A   Clear
2:55 AM 36.1 °F 29.9 °F 30.7 °F 81% 30.06 in 10.0 mi North 8.1 mph - N/A   Clear
3:15 AM 35.1 °F 28.6 °F 30.6 °F 84% 30.06 in 10.0 mi North 8.1 mph - N/A   Clear
3:35 AM 34.2 °F 28.2 °F 30.0 °F 85% 30.07 in 10.0 mi North 6.9 mph - N/A   Clear
3:55 AM 34.5 °F 27.3 °F 29.3 °F 81% 30.08 in 10.0 mi North 9.2 mph - N/A   Clear
4:15 AM 34.7 °F 27.5 °F 29.1 °F 80% 30.09 in 10.0 mi North 9.2 mph - N/A   Clear
4:35 AM 35.8 °F 28.3 °F 28.2 °F 74% 30.10 in 10.0 mi North 10.4 mph - N/A   Clear
4:55 AM 35.2 °F 26.6 °F 28.2 °F 76% 30.11 in 10.0 mi NNE 12.7 mph - N/A   Clear
5:15 AM 34.0 °F 25.5 °F 28.2 °F 79% 30.12 in 10.0 mi NE 11.5 mph - N/A   Clear
5:35 AM 33.1 °F 24.4 °F 28.0 °F 82% 30.13 in - NNE 11.5 mph - N/A   Unknown
5:55 AM 33.3 °F 24.6 °F 28.0 °F 81% 30.14 in 10.0 mi NE 11.5 mph - N/A   Clear
6:15 AM 32.0 °F 24.8 °F 27.7 °F 84% 30.15 in 10.0 mi NE 8.1 mph - N/A   Clear
6:35 AM 30.7 °F 26.0 °F 27.1 °F 86% 30.16 in 10.0 mi NNE 4.6 mph - N/A   Clear
6:55 AM 30.2 °F - 27.1 °F 88% 30.17 in 10.0 mi Calm Calm - N/A   Clear
7:15 AM 32.0 °F 27.5 °F 28.4 °F 87% 30.17 in 10.0 mi NNE 4.6 mph - N/A   Clear
7:35 AM 34.0 °F 28.0 °F 29.1 °F 82% 30.18 in 10.0 mi NE 6.9 mph - N/A   Clear
7:55 AM 35.1 °F 28.6 °F 30.0 °F 82% 30.19 in 10.0 mi NNE 8.1 mph - N/A   Clear
8:15 AM 36.3 °F 28.4 °F 30.0 °F 78% 30.20 in 10.0 mi NE 11.5 mph - N/A   Clear
8:35 AM 37.4 °F 30.3 °F 30.6 °F 76% 30.20 in 10.0 mi ENE 10.4 mph - N/A   Clear
8:55 AM 38.5 °F 31.1 °F 30.4 °F 73% 30.21 in 10.0 mi ENE 11.5 mph - N/A   Clear
9:15 AM 39.7 °F 31.9 °F 29.8 °F 68% 30.21 in 10.0 mi ENE 13.8 mph - N/A   Clear
9:35 AM 41.0 °F 33.1 °F 30.4 °F 66% 30.21 in 10.0 mi NE 15.0 mph - N/A   Clear
9:55 AM 41.9 °F 35.9 °F 29.7 °F 62% 30.21 in 10.0 mi ENE 10.4 mph 18.4 mph N/A   Clear
10:15 AM 43.2 °F 37.0 °F 30.2 °F 60% 30.22 in 10.0 mi ENE 11.5 mph 17.3 mph N/A   Clear
10:35 AM 44.1 °F 39.0 °F 28.2 °F 54% 30.23 in 10.0 mi ENE 9.2 mph - N/A   Clear
10:55 AM 44.6 °F 38.8 °F 25.9 °F 48% 30.23 in 10.0 mi ENE 11.5 mph 16.1 mph N/A   Clear
11:15 AM 45.3 °F 39.3 °F 27.5 °F 50% 30.22 in 10.0 mi ENE 12.7 mph - N/A   Clear
11:35 AM 45.9 °F 40.8 °F 26.8 °F 47% 30.22 in 10.0 mi East 10.4 mph 16.1 mph N/A   Clear
11:55 AM 46.4 °F 41.1 °F 26.8 °F 46% 30.21 in 10.0 mi East 11.5 mph 17.3 mph N/A   Clear
12:15 PM 47.7 °F - 26.1 °F 43% 30.21 in 10.0 mi NE 9.2 mph - N/A   Clear
12:35 PM 48.2 °F - 26.2 °F 42% 30.21 in 10.0 mi ENE 11.5 mph - N/A   Clear
12:55 PM 48.6 °F - 25.2 °F 40% 30.19 in 10.0 mi NNE 10.4 mph - N/A   Clear
1:15 PM 48.6 °F - 25.5 °F 41% 30.18 in 10.0 mi NE 9.2 mph - N/A   Clear
1:35 PM 49.3 °F - 24.3 °F 38% 30.17 in 10.0 mi ESE 4.6 mph - N/A   Clear
1:55 PM 50.0 °F - 23.7 °F 36% 30.17 in 10.0 mi North 3.5 mph - N/A   Clear
2:15 PM 50.4 °F - 24.6 °F 37% 30.16 in 10.0 mi East 10.4 mph 16.1 mph N/A   Clear
2:35 PM 51.3 °F - 23.7 °F 34% 30.15 in 10.0 mi East 4.6 mph - N/A   Clear
2:55 PM 51.1 °F - 22.5 °F 33% 30.15 in 10.0 mi East 6.9 mph - N/A   Clear
3:15 PM 50.9 °F - 21.2 °F 31% 30.15 in 10.0 mi North 3.5 mph - N/A   Clear
3:35 PM 51.4 °F - 20.1 °F 29% 30.14 in 10.0 mi NNW 6.9 mph - N/A   Clear
3:55 PM 52.3 °F - 21.9 °F 30% 30.14 in 10.0 mi ENE 4.6 mph - N/A   Clear
4:15 PM 51.6 °F - 22.5 °F 32% 30.14 in 10.0 mi SSE 3.5 mph - N/A   Clear
4:35 PM 52.2 °F - 22.3 °F 31% 30.13 in 10.0 mi NE 5.8 mph - N/A   Clear
4:55 PM 51.4 °F - 22.3 °F 32% 30.14 in 10.0 mi ENE 5.8 mph - N/A   Clear
5:15 PM 50.5 °F - 23.2 °F 34% 30.14 in 10.0 mi East 8.1 mph - N/A   Clear
5:35 PM 50.2 °F - 23.9 °F 36% 30.14 in 10.0 mi ESE 6.9 mph - N/A   Clear
5:55 PM 50.0 °F - 24.8 °F 37% 30.14 in 10.0 mi ESE 8.1 mph - N/A   Mostly Cloudy
6:15 PM 49.3 °F - 25.9 °F 40% 30.14 in 10.0 mi ESE 9.2 mph - N/A   Overcast
6:35 PM 48.6 °F - 26.2 °F 42% 30.14 in 10.0 mi ESE 9.2 mph - N/A   Overcast
6:55 PM 47.7 °F - 26.6 °F 44% 30.14 in 10.0 mi ESE 10.4 mph - N/A   Overcast
7:15 PM 46.6 °F - 27.3 °F 47% 30.13 in 10.0 mi East 11.5 mph - N/A   Overcast
7:35 PM 45.0 °F 37.6 °F 27.5 °F 50% 30.13 in 10.0 mi East 17.3 mph - N/A   Overcast
7:55 PM 43.0 °F 35.1 °F 27.7 °F 55% 30.12 in 10.0 mi ESE 17.3 mph 21.9 mph N/A   Mostly Cloudy
8:15 PM 42.1 °F 33.9 °F 27.5 °F 56% 30.12 in 10.0 mi ESE 17.3 mph 23.0 mph N/A   Overcast
8:35 PM 41.0 °F 31.9 °F 25.7 °F 55% 30.11 in 10.0 mi East 19.6 mph 27.6 mph N/A   Mostly Cloudy
8:55 PM 40.1 °F 30.2 °F 25.0 °F 55% 30.10 in 10.0 mi East 21.9 mph 27.6 mph N/A   Overcast
9:15 PM 39.4 °F 30.1 °F 24.4 °F 55% 30.11 in 10.0 mi ESE 18.4 mph 26.5 mph N/A   Mostly Cloudy
9:35 PM 38.8 °F 30.4 °F 21.9 °F 51% 30.13 in 10.0 mi ESE 15.0 mph 21.9 mph N/A   Mostly Cloudy
9:55 PM 38.7 °F 31.8 °F 18.9 °F 45% 30.14 in 10.0 mi ESE 10.4 mph - N/A   Scattered Clouds
10:15 PM 37.9 °F 30.0 °F 19.0 °F 47% 30.13 in 10.0 mi ESE 12.7 mph - N/A   Scattered Clouds
10:35 PM 37.8 °F 29.8 °F 17.8 °F 44% 30.13 in 10.0 mi ESE 12.7 mph - N/A   Scattered Clouds
10:55 PM 37.6 °F 30.0 °F 17.8 °F 45% 30.13 in 10.0 mi ESE 11.5 mph - N/A   Clear
11:15 PM 37.4 °F 30.8 °F 18.0 °F 45% 30.13 in 10.0 mi East 9.2 mph - N/A   Scattered Clouds
11:35 PM 37.0 °F 29.3 °F 18.3 °F 47% 30.11 in 10.0 mi ESE 11.5 mph - N/A   Scattered Clouds
11:55 PM 36.9 °F 30.1 °F 18.5 °F 47% 30.12 in 10.0 mi ESE 9.2 mph - N/A   Scattered Clouds